Terminal Aerodrome Forecast
Issued by NWS

Home | Current Version | Previous Version | Text Only | Print | Product List | Glossary On
Versions: 1 2 3 4 5 6 7 8 9 10 11 12 13 14 15
000
FTUS46 KSEW 311100
TAFHQM
TAF
KHQM 311120Z 3112/0112 18008KT P6SM -SHRA OVC040
      TEMPO 3112/3116 4SM -SHRA BR OVC030
     FM312000 21006KT P6SM VCSH SCT020 BKN040
     FM010600 18006KT P6SM BKN015 OVC040=

USA.gov is the U.S. government's official web portal to all federal, state and local government web resources and services.